createdAt,value
2023-02-11T00:03:34.491Z,27.83
2023-02-11T00:08:36.314Z,23.70
2023-02-11T00:13:37.605Z,18.50
2023-02-11T00:18:38.994Z,20.98
2023-02-11T00:23:40.604Z,23.58
2023-02-11T00:28:41.925Z,21.83
2023-02-11T00:33:45.518Z,20.13
2023-02-11T00:38:47.399Z,20.98
2023-02-11T00:43:49.119Z,19.92
2023-02-11T00:48:57.478Z,30.30
2023-02-11T00:53:58.818Z,25.35
2023-02-11T00:59:00.248Z,21.10
2023-02-11T01:04:01.592Z,23.60
2023-02-11T01:09:02.964Z,22.20
2023-02-11T01:14:04.345Z,18.90
2023-02-11T01:19:05.708Z,25.65
2023-02-11T01:24:07.067Z,20.63
2023-02-11T01:29:09.451Z,27.55
2023-02-11T01:34:10.797Z,18.48
2023-02-11T01:39:12.144Z,25.58
2023-02-11T01:44:28.257Z,22.73
2023-02-11T01:49:33.960Z,21.50
2023-02-11T01:54:57.113Z,28.63
2023-02-11T02:00:21.781Z,18.67
2023-02-11T02:05:33.251Z,19.85
2023-02-11T02:10:36.525Z,15.75
2023-02-11T02:15:38.950Z,29.70
2023-02-11T02:20:59.206Z,22.63
2023-02-11T02:26:03.801Z,23.08
2023-02-11T02:31:14.256Z,19.83
2023-02-11T02:36:15.630Z,22.98
2023-02-11T02:41:18.922Z,22.33
2023-02-11T02:46:22.144Z,23.60
2023-02-11T02:51:35.661Z,19.60
2023-02-11T02:56:55.890Z,26.90
2023-02-11T03:02:02.664Z,25.83
2023-02-11T03:07:14.917Z,20.30
2023-02-11T03:12:17.019Z,24.05
2023-02-11T03:17:19.140Z,19.60
2023-02-11T03:22:25.428Z,18.70
2023-02-11T03:27:28.787Z,20.45
2023-02-11T03:32:34.847Z,20.65
2023-02-11T03:37:41.652Z,18.55
2023-02-11T03:42:45.843Z,33.10
2023-02-11T03:47:50.791Z,18.33
2023-02-11T03:52:53.420Z,24.65
2023-02-11T03:57:54.893Z,20.83
2023-02-11T04:02:56.252Z,20.70
2023-02-11T04:07:57.714Z,20.30
2023-02-11T04:12:59.069Z,21.02
2023-02-11T04:18:00.430Z,20.52
2023-02-11T04:23:01.828Z,20.85
2023-02-11T04:28:03.272Z,19.70
2023-02-11T04:33:04.628Z,26.27
2023-02-11T04:38:05.972Z,21.73
2023-02-11T04:43:07.336Z,23.42
2023-02-11T04:48:08.695Z,23.73
2023-02-11T04:53:10.022Z,22.58
2023-02-11T04:58:11.334Z,21.23
2023-02-11T05:03:13.045Z,16.58
2023-02-11T05:08:14.362Z,16.73
2023-02-11T05:13:15.694Z,21.08
2023-02-11T05:18:16.991Z,18.33
2023-02-11T05:23:18.289Z,23.35
2023-02-11T05:28:19.646Z,26.02
2023-02-11T05:33:21.007Z,20.02
2023-02-11T05:38:22.343Z,21.20
2023-02-11T05:43:23.744Z,16.40
2023-02-11T05:48:25.085Z,16.30
2023-02-11T05:53:26.396Z,26.45
2023-02-11T05:58:27.978Z,25.05
2023-02-11T06:03:29.383Z,22.83
2023-02-11T06:08:30.849Z,24.35
2023-02-11T06:13:32.419Z,27.80
2023-02-11T06:18:33.846Z,22.55
2023-02-11T06:23:35.169Z,29.13
2023-02-11T06:28:38.780Z,19.92
2023-02-11T06:33:42.145Z,30.85
2023-02-11T06:38:43.579Z,32.28
2023-02-11T06:43:44.931Z,26.77
2023-02-11T06:48:46.289Z,26.90
2023-02-11T06:53:47.837Z,25.38
2023-02-11T06:58:52.108Z,28.17
2023-02-11T07:03:53.745Z,30.42
2023-02-11T07:08:55.670Z,27.50
2023-02-11T07:14:00.104Z,31.92
2023-02-11T07:19:01.536Z,34.58
2023-02-11T07:24:07.290Z,30.08
2023-02-11T07:29:10.289Z,33.33
2023-02-11T07:34:11.696Z,27.48
2023-02-11T07:39:13.541Z,28.23
2023-02-11T07:44:15.194Z,35.80
2023-02-11T07:49:16.820Z,33.08
2023-02-11T07:54:18.245Z,29.65
2023-02-11T07:59:20.757Z,38.22
2023-02-11T08:04:22.106Z,32.88
2023-02-11T08:09:23.478Z,40.08
2023-02-11T08:14:25.186Z,34.17
2023-02-11T08:19:27.389Z,37.35
2023-02-11T08:24:28.748Z,26.52
2023-02-11T08:29:30.445Z,28.00
2023-02-11T08:34:31.830Z,36.47
2023-02-11T08:39:33.351Z,38.85
2023-02-11T08:44:34.727Z,32.17
2023-02-11T08:49:36.270Z,31.63
2023-02-11T08:54:37.621Z,36.20
2023-02-11T08:59:39.994Z,36.95
2023-02-11T09:04:41.361Z,40.28
2023-02-11T09:09:42.776Z,34.92
2023-02-11T09:14:44.144Z,36.67
2023-02-11T09:19:45.457Z,37.88
2023-02-11T09:24:46.829Z,35.28
2023-02-11T09:29:48.160Z,37.88
2023-02-11T09:34:49.477Z,30.55
2023-02-11T09:39:50.926Z,37.67
2023-02-11T09:44:52.330Z,40.38
2023-02-11T09:49:56.957Z,39.50
2023-02-11T09:54:59.725Z,30.98
2023-02-11T10:00:16.397Z,38.03
2023-02-11T10:05:25.607Z,37.03
2023-02-11T10:10:45.736Z,32.30
2023-02-11T10:15:51.336Z,36.70
2023-02-11T10:20:52.895Z,40.63
2023-02-11T10:25:56.289Z,40.78
2023-02-11T10:30:57.811Z,35.03
2023-02-11T10:36:00.498Z,35.78
2023-02-11T10:43:42.296Z,36.60
2023-02-11T10:48:45.659Z,35.17
2023-02-11T10:53:48.258Z,39.78
2023-02-11T10:59:04.505Z,37.47
2023-02-11T11:04:06.150Z,41.30
2023-02-11T11:09:21.709Z,31.70
2023-02-11T11:14:25.965Z,35.97
2023-02-11T11:19:27.574Z,38.25
2023-02-11T11:24:31.967Z,36.63
2023-02-11T11:30:08.670Z,39.20
2023-02-11T11:35:29.463Z,42.10
2023-02-11T11:40:32.039Z,48.78
2023-02-11T11:45:33.418Z,44.38
2023-02-11T11:50:50.102Z,46.05
2023-02-11T11:56:02.981Z,51.50
2023-02-11T12:01:23.062Z,39.75
2023-02-11T12:06:24.421Z,34.40
2023-02-11T12:11:30.834Z,36.00
2023-02-11T12:16:52.540Z,37.25
2023-02-11T12:22:00.330Z,42.70
2023-02-11T12:27:11.219Z,36.70
2023-02-11T12:32:17.702Z,32.15
2023-02-11T12:37:19.703Z,44.10
2023-02-11T12:42:50.724Z,36.65
2023-02-11T12:48:07.082Z,42.63
2023-02-11T12:53:24.124Z,38.53
2023-02-11T12:58:35.638Z,34.67
2023-02-11T13:03:46.829Z,41.07
2023-02-11T13:08:58.384Z,41.20
2023-02-11T13:13:59.684Z,37.63
2023-02-11T13:19:12.975Z,36.38
2023-02-11T13:24:29.634Z,41.28
2023-02-11T13:29:42.638Z,38.83
2023-02-11T13:34:43.937Z,37.63
2023-02-11T13:39:56.134Z,45.35
2023-02-11T13:44:57.906Z,38.05
2023-02-11T13:50:00.038Z,43.42
2023-02-11T13:55:14.708Z,34.85
2023-02-11T14:00:34.561Z,37.17
2023-02-11T14:11:10.853Z,39.00
2023-02-11T14:16:20.491Z,41.35
2023-02-11T14:21:30.283Z,41.92
2023-02-11T14:26:35.127Z,39.30
2023-02-11T14:31:43.752Z,32.35
2023-02-11T14:36:51.679Z,40.23
2023-02-11T14:41:53.670Z,34.28
2023-02-11T14:46:55.471Z,52.88
2023-02-11T14:52:02.144Z,35.58
2023-02-11T14:57:07.465Z,36.47
2023-02-11T15:02:23.062Z,32.22
2023-02-11T15:07:28.945Z,43.45
2023-02-11T15:12:30.306Z,32.10
2023-02-11T15:17:31.983Z,39.75
2023-02-11T15:22:36.438Z,45.92
2023-02-11T15:27:45.160Z,36.47
2023-02-11T15:32:46.851Z,40.20
2023-02-11T15:37:50.622Z,38.25
2023-02-11T15:42:53.874Z,36.13
2023-02-11T15:48:01.578Z,35.78
2023-02-11T15:53:05.705Z,37.45
2023-02-11T15:58:09.656Z,39.90
2023-02-11T16:03:24.591Z,37.17
2023-02-11T16:08:29.617Z,41.85
2023-02-11T16:13:34.189Z,45.53
2023-02-11T16:18:40.264Z,45.00
2023-02-11T16:23:42.462Z,48.50
2023-02-11T16:28:43.828Z,41.92
2023-02-11T16:33:45.382Z,44.40
2023-02-11T16:38:46.726Z,39.15
2023-02-11T16:43:48.036Z,39.63
2023-02-11T16:48:49.442Z,44.53
2023-02-11T16:53:50.786Z,44.15
2023-02-11T16:58:52.096Z,49.92
2023-02-11T17:03:53.946Z,43.13
2023-02-11T17:08:55.261Z,43.08
2023-02-11T17:13:56.588Z,47.38
2023-02-11T17:18:57.945Z,46.33
2023-02-11T17:23:59.306Z,52.00
2023-02-11T17:29:00.667Z,42.95
2023-02-11T17:34:02.234Z,45.53
2023-02-11T17:39:06.968Z,48.20
2023-02-11T17:44:10.469Z,52.22
2023-02-11T17:49:12.116Z,44.63
2023-02-11T17:54:14.976Z,49.10
2023-02-11T17:59:16.539Z,52.08
2023-02-11T18:04:18.858Z,46.40
2023-02-11T18:09:20.340Z,42.60
2023-02-11T18:14:22.360Z,47.10
2023-02-11T18:19:23.731Z,50.28
2023-02-11T18:24:25.171Z,46.45
2023-02-11T18:29:26.621Z,44.70
2023-02-11T18:34:28.625Z,53.88
2023-02-11T18:39:30.107Z,46.35
2023-02-11T18:44:31.626Z,58.78
2023-02-11T18:49:35.609Z,49.00
2023-02-11T18:54:36.949Z,54.08
2023-02-11T18:59:38.271Z,48.78
2023-02-11T19:04:39.681Z,46.38
2023-02-11T19:09:41.126Z,49.60
2023-02-11T19:14:42.537Z,48.60
2023-02-11T19:19:44.029Z,48.45
2023-02-11T19:24:45.799Z,52.22
2023-02-11T19:29:47.215Z,49.00
2023-02-11T19:34:48.751Z,49.13
2023-02-11T19:39:50.061Z,47.72
2023-02-11T19:44:51.578Z,46.10
2023-02-11T19:49:53.270Z,49.08
2023-02-11T19:54:54.574Z,50.97
2023-02-11T19:59:56.856Z,51.92
2023-02-11T20:04:58.184Z,50.83
2023-02-11T20:09:59.851Z,48.72
2023-02-11T20:15:01.183Z,43.22
2023-02-11T20:20:02.504Z,43.97
2023-02-11T20:25:04.353Z,46.78
2023-02-11T20:30:06.040Z,54.03
2023-02-11T20:35:08.059Z,47.63
2023-02-11T20:40:09.542Z,51.72
2023-02-11T20:45:10.909Z,45.95
2023-02-11T20:50:12.537Z,48.78
2023-02-11T20:55:13.905Z,44.70
2023-02-11T21:00:15.395Z,52.78
2023-02-11T21:05:16.742Z,57.88
2023-02-11T21:10:18.291Z,52.80
2023-02-11T21:15:19.737Z,43.53
2023-02-11T21:20:21.119Z,42.75
2023-02-11T21:25:22.528Z,45.90
2023-02-11T21:30:23.978Z,43.38
2023-02-11T21:35:25.379Z,42.15
2023-02-11T21:40:29.755Z,45.05
2023-02-11T21:45:32.468Z,43.95
2023-02-11T21:50:33.950Z,46.72
2023-02-11T21:55:35.866Z,44.10
2023-02-11T22:00:37.308Z,47.65
2023-02-11T22:05:39.743Z,48.55
2023-02-11T22:10:41.211Z,43.78
2023-02-11T22:15:42.534Z,41.35
2023-02-11T22:20:43.866Z,40.63
2023-02-11T22:25:45.242Z,41.05
2023-02-11T22:30:51.808Z,51.40
2023-02-11T22:36:03.731Z,49.40
2023-02-11T22:41:06.120Z,42.45
2023-02-11T22:46:07.732Z,40.05
2023-02-11T22:51:11.804Z,44.40
2023-02-11T22:56:15.507Z,46.10
2023-02-11T23:01:17.380Z,47.03
2023-02-11T23:06:18.781Z,38.92
2023-02-11T23:11:21.808Z,48.25
2023-02-11T23:16:25.218Z,40.25
2023-02-11T23:21:28.330Z,43.83
2023-02-11T23:26:29.944Z,41.72
2023-02-11T23:31:37.801Z,39.97
2023-02-11T23:36:39.343Z,42.30
2023-02-11T23:41:40.678Z,42.38
2023-02-11T23:46:42.048Z,46.38
2023-02-11T23:51:43.447Z,40.33
2023-02-11T23:56:44.850Z,43.78
